createdAt,value
2018-06-20T18:44:48.573Z,4.30
2018-06-20T18:47:01.399Z,9.10
2018-06-20T18:51:05.487Z,7.50
2018-06-20T18:52:05.404Z,10.50
2018-06-20T18:53:05.380Z,10.10
2018-06-20T18:57:06.774Z,13.10
2018-06-20T18:57:46.433Z,14.90
2018-06-20T18:58:46.433Z,31.30
2018-06-20T18:59:45.651Z,33.90
2018-06-20T19:00:45.629Z,13.50
2018-06-20T19:01:45.590Z,16.00
2018-06-20T19:02:45.559Z,17.00
2018-06-20T19:03:45.533Z,41.90
2018-06-20T19:04:45.506Z,29.80
2018-06-20T19:05:45.479Z,12.30
2018-06-20T19:06:45.459Z,9.30
2018-06-20T19:07:45.420Z,9.20
2018-06-20T19:08:45.390Z,6.60
2018-06-20T19:09:45.360Z,13.00
2018-06-20T19:10:45.332Z,8.60
2018-06-20T19:11:45.303Z,9.20
2018-06-20T19:12:45.273Z,8.90
2018-06-20T19:13:45.245Z,6.80
2018-06-20T19:14:45.216Z,7.60
2018-06-20T19:15:45.197Z,7.70
2018-06-20T19:16:45.161Z,11.40
2018-06-20T19:17:45.132Z,5.70
2018-06-20T19:18:45.097Z,16.00
2018-06-20T19:19:45.074Z,7.20
2018-06-20T19:20:45.055Z,11.10
2018-06-20T19:21:45.018Z,7.10
2018-06-20T19:22:44.988Z,12.90
2018-06-20T19:23:44.958Z,4.00
2018-06-20T19:24:44.928Z,10.40
2018-06-20T19:25:44.902Z,14.30
2018-06-20T19:26:44.873Z,16.00
2018-06-20T19:27:44.844Z,11.60
2018-06-20T19:28:44.813Z,16.80
2018-06-20T19:29:44.788Z,18.70
2018-06-20T19:30:44.753Z,13.20
2018-06-20T19:31:44.721Z,14.30
2018-06-20T19:32:44.694Z,9.70
2018-06-20T19:33:44.669Z,16.90
2018-06-20T19:34:44.632Z,8.50
2018-06-20T19:35:44.614Z,17.10
2018-06-20T19:36:44.581Z,13.40
2018-06-20T19:37:44.550Z,11.80
2018-06-20T19:38:44.550Z,17.00
2018-06-20T19:39:44.493Z,12.90
2018-06-20T19:40:44.461Z,6.30
2018-06-20T19:41:44.432Z,7.90
2018-06-20T19:42:44.405Z,6.60
2018-06-20T19:43:44.381Z,15.30
2018-06-20T19:44:44.420Z,13.50
2018-06-20T19:45:44.315Z,11.50
2018-06-20T19:46:44.302Z,8.90
2018-06-20T19:47:44.275Z,10.80
2018-06-20T19:48:44.243Z,14.50
2018-06-20T19:49:44.198Z,44.40
2018-06-20T19:50:44.168Z,10.80
2018-06-20T19:51:44.206Z,11.10
2018-06-20T19:52:44.109Z,7.70
2018-06-20T19:53:44.080Z,10.60
2018-06-20T19:54:44.072Z,8.80
2018-06-20T19:55:44.022Z,10.00
2018-06-20T19:56:43.993Z,10.10
2018-06-20T19:57:43.961Z,12.30
2018-06-20T19:58:43.933Z,10.70
2018-06-20T19:59:43.905Z,25.70
2018-06-20T20:00:43.883Z,15.50
2018-06-20T20:01:43.845Z,19.00
2018-06-20T20:02:43.853Z,9.90
2018-06-20T20:03:43.787Z,11.30
2018-06-20T20:04:43.755Z,19.70
2018-06-20T20:05:43.727Z,22.90
2018-06-20T20:06:43.724Z,15.60
2018-06-20T20:07:43.668Z,10.40
2018-06-20T20:08:43.639Z,5.30
2018-06-20T20:09:43.609Z,18.80
2018-06-20T20:10:43.579Z,7.10
2018-06-20T20:11:43.550Z,11.10
2018-06-20T20:12:43.519Z,9.00
2018-06-20T20:13:43.489Z,11.60
2018-06-20T20:14:43.461Z,14.50
2018-06-20T20:15:43.431Z,13.50
2018-06-20T20:16:43.393Z,10.30
2018-06-20T20:17:43.363Z,10.50
2018-06-20T20:18:43.342Z,11.40
2018-06-20T20:19:43.312Z,11.30
2018-06-20T20:20:43.282Z,10.60
2018-06-20T20:21:43.254Z,12.30
2018-06-20T20:22:43.216Z,8.20
2018-06-20T20:23:43.191Z,14.30
2018-06-20T20:24:43.167Z,16.30
2018-06-20T20:25:43.131Z,15.90
2018-06-20T20:26:43.102Z,12.10
2018-06-20T20:27:43.072Z,10.90
2018-06-20T20:28:43.042Z,21.80
2018-06-20T20:29:43.010Z,7.30
2018-06-20T20:30:42.985Z,19.80
2018-06-20T20:31:42.955Z,11.00
2018-06-20T20:32:42.935Z,9.80
2018-06-20T20:33:42.891Z,12.10
2018-06-20T20:34:42.890Z,9.80
2018-06-20T20:35:42.829Z,14.00
2018-06-20T20:36:42.807Z,11.20
2018-06-20T20:37:42.773Z,18.00
2018-06-20T20:38:42.745Z,15.10
2018-06-20T20:39:42.709Z,12.10
2018-06-20T20:40:42.685Z,15.10
2018-06-20T20:41:42.651Z,13.50
2018-06-20T20:42:42.632Z,36.90
2018-06-20T20:43:42.620Z,19.70
2018-06-20T20:44:42.569Z,20.70
2018-06-20T20:45:42.534Z,18.50
2018-06-20T20:46:42.504Z,17.40
2018-06-20T20:47:42.472Z,16.70
2018-06-20T20:48:42.442Z,13.10
2018-06-20T20:49:42.420Z,15.90
2018-06-20T20:50:42.382Z,16.00
2018-06-20T20:51:42.363Z,17.30
2018-06-20T20:52:42.329Z,9.00
2018-06-20T20:53:42.292Z,11.60
2018-06-20T20:54:42.264Z,17.90
2018-06-20T20:55:42.227Z,23.50
2018-06-20T20:56:42.311Z,17.10
2018-06-20T20:57:42.172Z,16.10
2018-06-20T20:58:42.133Z,23.20
2018-06-20T20:59:42.158Z,21.60
2018-06-20T21:00:42.076Z,20.00
2018-06-20T21:01:42.043Z,22.20
2018-06-20T21:02:42.023Z,18.10
2018-06-20T21:03:41.994Z,23.50
2018-06-20T21:04:41.964Z,27.00
2018-06-20T21:05:41.963Z,23.20
2018-06-20T21:06:41.895Z,39.30
2018-06-20T21:07:41.873Z,24.30
2018-06-20T21:08:41.841Z,15.60
2018-06-20T21:09:41.807Z,21.40
2018-06-20T21:10:41.780Z,25.30
2018-06-20T21:11:41.798Z,34.70
2018-06-20T21:12:41.719Z,24.30
2018-06-20T21:13:41.688Z,46.10
2018-06-20T21:14:41.660Z,30.00
2018-06-20T21:15:41.629Z,22.70
2018-06-20T21:16:41.600Z,28.50
2018-06-20T21:17:41.567Z,37.60
2018-06-20T21:18:41.537Z,40.30
2018-06-20T21:19:41.507Z,26.60
2018-06-20T21:20:41.485Z,42.70
2018-06-20T21:21:41.461Z,40.00
2018-06-20T21:22:41.416Z,40.20
2018-06-20T21:23:41.398Z,59.50
2018-06-20T21:24:41.354Z,42.00
2018-06-20T21:25:41.326Z,36.60
2018-06-20T21:26:41.295Z,31.90
2018-06-20T21:27:41.325Z,37.90
2018-06-20T21:28:41.242Z,31.30
2018-06-20T21:29:41.203Z,46.00
2018-06-20T21:30:41.166Z,40.30
2018-06-20T21:31:41.138Z,52.30
2018-06-20T21:32:41.116Z,28.30
2018-06-20T21:33:41.231Z,34.30
2018-06-20T21:34:41.053Z,31.80
2018-06-20T21:35:41.024Z,20.50
2018-06-20T21:36:40.990Z,37.70
2018-06-20T21:37:40.969Z,38.70
2018-06-20T21:38:40.930Z,27.80
2018-06-20T21:39:40.904Z,38.80
2018-06-20T21:40:40.871Z,29.90
2018-06-20T21:41:40.839Z,31.40
2018-06-20T21:42:40.811Z,49.50
2018-06-20T21:43:40.783Z,36.10
2018-06-20T21:44:40.748Z,29.70
2018-06-20T21:45:40.934Z,28.90
2018-06-20T21:46:40.686Z,42.60
2018-06-20T21:47:40.663Z,26.00
2018-06-20T21:48:40.676Z,35.40
2018-06-20T21:49:40.599Z,36.70
2018-06-20T21:50:40.560Z,31.90
2018-06-20T21:51:40.546Z,27.20
2018-06-20T21:52:40.506Z,36.50
2018-06-20T21:53:40.507Z,25.80
2018-06-20T21:54:40.443Z,28.90
2018-06-20T21:55:40.415Z,34.70
2018-06-20T21:56:40.384Z,34.10
2018-06-20T21:57:40.357Z,33.90
2018-06-20T21:58:40.330Z,30.60
2018-06-20T21:59:40.293Z,34.90
2018-06-20T22:00:40.260Z,35.70
2018-06-20T22:01:40.249Z,38.80
2018-06-20T22:02:40.209Z,37.00
2018-06-20T22:03:40.179Z,37.40
2018-06-20T22:04:40.418Z,45.50
2018-06-20T22:05:40.109Z,44.50
2018-06-20T22:06:40.100Z,39.00
2018-06-20T22:07:40.049Z,36.40
2018-06-20T22:08:40.033Z,28.20
2018-06-20T22:09:39.992Z,41.10
2018-06-20T22:10:39.955Z,27.60
2018-06-20T22:11:39.925Z,23.90
2018-06-20T22:12:39.893Z,29.60
2018-06-20T22:13:39.863Z,34.80
2018-06-20T22:14:39.833Z,34.70
2018-06-20T22:15:39.796Z,26.80
2018-06-20T22:16:39.784Z,20.30
2018-06-20T22:17:42.580Z,29.50
2018-06-20T22:18:39.749Z,24.10
2018-06-20T22:19:39.687Z,20.30
2018-06-20T22:20:39.682Z,19.30
2018-06-20T22:21:39.621Z,23.90
2018-06-20T22:22:39.587Z,21.30
2018-06-20T22:23:39.559Z,24.50
2018-06-20T22:24:39.524Z,15.30
2018-06-20T22:25:39.541Z,14.60
2018-06-20T22:26:39.468Z,15.60
2018-06-20T22:27:39.439Z,24.40
2018-06-20T22:28:39.402Z,15.30
2018-06-20T22:29:39.382Z,27.70
2018-06-20T22:30:39.341Z,18.80
2018-06-20T22:31:39.310Z,19.00
2018-06-20T22:32:39.292Z,13.40
2018-06-20T22:33:39.269Z,18.20
2018-06-20T22:34:39.219Z,21.80
2018-06-20T22:35:39.192Z,18.90
2018-06-20T22:36:39.173Z,17.40
2018-06-20T22:37:40.008Z,22.00
2018-06-20T22:38:39.103Z,12.90
2018-06-20T22:39:40.506Z,11.00
2018-06-20T22:40:39.055Z,18.40
2018-06-20T22:41:39.003Z,21.10
2018-06-20T22:42:38.970Z,16.20
2018-06-20T22:43:38.944Z,18.60
2018-06-20T22:44:38.910Z,14.00
2018-06-20T22:45:38.875Z,19.50
2018-06-20T22:46:38.849Z,17.30
2018-06-20T22:47:38.819Z,20.20
2018-06-20T22:48:38.805Z,16.60
2018-06-20T22:49:38.780Z,13.90
2018-06-20T22:50:38.723Z,16.00
2018-06-20T22:51:38.695Z,20.80
2018-06-20T22:52:38.662Z,14.90
2018-06-20T22:53:38.640Z,15.90
2018-06-20T22:54:38.611Z,16.00
2018-06-20T22:55:38.595Z,14.60
2018-06-20T22:56:38.539Z,24.20
2018-06-20T22:57:38.537Z,15.60
2018-06-20T22:58:38.476Z,14.00
2018-06-20T22:59:38.461Z,14.70
2018-06-20T23:00:38.415Z,15.80
2018-06-20T23:01:38.384Z,15.10
2018-06-20T23:02:38.364Z,19.10
2018-06-20T23:03:38.324Z,14.60
2018-06-20T23:04:38.304Z,16.60
2018-06-20T23:05:38.260Z,15.80
2018-06-20T23:06:38.228Z,16.90
2018-06-20T23:07:38.197Z,10.60
2018-06-20T23:08:38.180Z,12.70
2018-06-20T23:09:38.181Z,16.10
2018-06-20T23:10:38.125Z,18.00
2018-06-20T23:11:38.088Z,15.40
2018-06-20T23:12:38.042Z,16.70
2018-06-20T23:13:38.012Z,17.70
2018-06-20T23:14:37.985Z,13.20
2018-06-20T23:15:37.947Z,13.00
2018-06-20T23:16:37.919Z,16.00
2018-06-20T23:17:37.889Z,12.80
2018-06-20T23:18:37.858Z,13.30
2018-06-20T23:19:37.827Z,16.10
2018-06-20T23:20:37.795Z,18.10
2018-06-20T23:21:37.761Z,15.90
2018-06-20T23:22:37.735Z,11.90
2018-06-20T23:23:37.724Z,19.90
2018-06-20T23:24:37.672Z,14.70
2018-06-20T23:25:37.635Z,19.30
2018-06-20T23:26:37.615Z,18.50
2018-06-20T23:27:37.576Z,11.40
2018-06-20T23:28:37.552Z,18.00
2018-06-20T23:29:37.511Z,23.50
2018-06-20T23:30:37.485Z,23.10
2018-06-20T23:31:37.458Z,11.50
2018-06-20T23:32:37.423Z,16.30
2018-06-20T23:33:37.388Z,21.10
2018-06-20T23:34:37.388Z,33.40
2018-06-20T23:35:37.327Z,30.30
2018-06-20T23:36:37.295Z,18.60
2018-06-20T23:37:37.263Z,23.70
2018-06-20T23:38:37.231Z,24.40
2018-06-20T23:39:37.213Z,24.90
2018-06-20T23:40:37.178Z,23.40
2018-06-20T23:41:37.141Z,27.70
2018-06-20T23:42:37.129Z,27.20
2018-06-20T23:43:37.079Z,26.10
2018-06-20T23:44:37.048Z,29.00
2018-06-20T23:45:37.015Z,23.00
2018-06-20T23:46:36.986Z,25.20
2018-06-20T23:47:36.955Z,21.90
2018-06-20T23:48:36.936Z,29.80
2018-06-20T23:49:36.905Z,29.90
2018-06-20T23:50:36.863Z,33.10
2018-06-20T23:51:36.827Z,27.60
2018-06-20T23:52:36.797Z,29.80
2018-06-20T23:53:36.782Z,26.70
2018-06-20T23:54:36.737Z,22.10
2018-06-20T23:55:36.712Z,34.20
2018-06-20T23:56:36.668Z,41.80
2018-06-20T23:57:36.638Z,34.50
2018-06-20T23:58:36.620Z,28.60
2018-06-20T23:59:36.571Z,38.70
